Terminal Aerodrome Forecast
Issued by NWS Cleveland, OH

Home | Current Version | Previous Version | Text Only | Print | Product List | Glossary On
Versions: 1 2 3 4 5 6 7 8 9 10 11 12 13 14 15 16
000
FTUS41 KCLE 011700 RRA
TAFMFD
TAF
KMFD 011746Z 0118/0218 13011KT 5SM -SN BR SCT006 OVC025
      TEMPO 0118/0121 2SM -SN OVC006
     FM012100 11011KT 1 1/2SM -SN OVC006
      TEMPO 0200/0204 1SM -FZRASNPL
     FM020500 24010G20KT 3/4SM -SN BLSN OVC004
     FM021500 32015G25KT 2SM BLSN OVC008=

USA.gov is the U.S. government's official web portal to all federal, state and local government web resources and services.